Terminal Aerodrome Forecast
Issued by NWS Brownsville, TX

Home | Current Version | Previous Version | Text Only | Print | Product List | Glossary On
Versions: 1 2 3 4 5 6 7 8 9 10 11 12 13 14 15 16 17 18 19 20 21
232
FTUS44 KBRO 201735
TAFBRO
TAF
KBRO 201735Z 2018/2118 10007KT P6SM SCT018 BKN025
      TEMPO 2018/2020 BKN007
     FM202100 16008KT P6SM BKN020
     FM210000 15007KT P6SM OVC012
     FM210300 19004KT 4SM BR OVC007
     FM210500 19004KT 1/2SM FG OVC004
      TEMPO 2109/2113 1/4SM FG VV002
     FM211500 22007KT 5SM BR SKC=

USA.gov is the U.S. government's official web portal to all federal, state and local government web resources and services.